Time;durP1;ratioP1;P1;durP2;ratioP2;P2;SDS_P1;SDS_P2;PMS_P1;PMS_P2;Temp;Humidity;BMP_temperature;BMP_pressure;BME280_temperature;BME280_humidity;BME280_pressure;Samples;Min_cycle;Max_cycle;Signal;HPM_P1;HPM_P2
2022/08/21 00:01:26;;;;;;;21.30;11.40;;;;;;;16.46;89.91;101018.38;5076976;28;20080;-78
2022/08/21 00:03:53;;;;;;;21.10;10.67;;;;;;;16.58;89.37;101019.50;5078052;28;20045;-78
2022/08/21 00:06:20;;;;;;;16.20;11.38;;;;;;;16.52;89.67;101016.81;5077248;28;20294;-77
2022/08/21 00:08:46;;;;;;;15.73;12.10;;;;;;;16.54;89.78;101012.97;5077562;28;20095;-78
2022/08/21 00:11:13;;;;;;;16.15;10.60;;;;;;;16.56;89.92;101002.22;5079428;28;20048;-77
2022/08/21 00:13:40;;;;;;;18.50;10.75;;;;;;;16.52;89.91;101016.81;5078724;28;20491;-77
2022/08/21 00:16:08;;;;;;;14.38;10.63;;;;;;;16.53;90.10;101000.78;5076042;28;20502;-77
2022/08/21 00:18:35;;;;;;;18.35;11.63;;;;;;;16.48;90.36;101004.97;5076912;28;20075;-78
2022/08/21 00:21:02;;;;;;;15.77;10.50;;;;;;;16.40;90.39;100995.34;5077731;28;20082;-77
2022/08/21 00:23:28;;;;;;;21.95;11.63;;;;;;;16.42;90.27;100997.78;5076051;28;20052;-77
2022/08/21 00:25:55;;;;;;;19.08;10.40;;;;;;;16.39;90.60;100984.97;5077789;28;20080;-78
2022/08/21 00:28:22;;;;;;;20.70;11.27;;;;;;;16.35;90.70;100984.50;5092791;22;20101;-80
2022/08/21 00:30:48;;;;;;;15.82;10.20;;;;;;;16.25;90.88;100984.78;5088465;28;20072;-80
2022/08/21 00:33:16;;;;;;;16.75;10.68;;;;;;;16.16;91.32;100975.31;5080266;28;20087;-84
2022/08/21 00:35:43;;;;;;;17.95;11.35;;;;;;;16.24;91.69;100983.16;5081505;28;20087;-81
2022/08/21 00:38:11;;;;;;;13.55;10.52;;;;;;;16.31;91.23;100971.84;5079808;28;20135;-81
2022/08/21 00:40:44;;;;;;;20.27;11.23;;;;;;;16.29;90.92;100966.75;5081038;28;20044;-80
2022/08/21 00:43:13;;;;;;;14.18;10.57;;;;;;;16.21;91.36;100972.97;5081125;28;20511;-80
2022/08/21 00:45:40;;;;;;;14.75;11.23;;;;;;;16.14;91.58;100965.94;5080360;28;20102;-79
2022/08/21 00:48:07;;;;;;;14.52;10.55;;;;;;;16.04;92.16;100966.25;5081060;28;20080;-81
2022/08/21 00:50:40;;;;;;;14.45;10.93;;;;;;;16.00;92.49;100969.44;5081091;28;20044;-81
2022/08/21 00:53:08;;;;;;;13.90;10.60;;;;;;;15.99;92.66;100960.72;5081104;28;20079;-81
2022/08/21 00:55:37;;;;;;;16.20;10.70;;;;;;;16.02;92.27;100973.53;5080196;28;20533;-81
2022/08/21 00:58:06;;;;;;;16.58;10.82;;;;;;;15.98;92.42;100967.00;5079742;28;20057;-79
2022/08/21 01:00:38;;;;;;;18.73;9.93;;;;;;;15.91;92.37;100966.09;5078744;28;20044;-79
2022/08/21 01:03:10;;;;;;;15.02;10.07;;;;;;;15.87;92.64;100959.53;5080498;28;20059;-81
2022/08/21 01:05:38;;;;;;;18.30;9.98;;;;;;;15.92;92.42;100962.44;5080406;28;20087;-82
2022/08/21 01:08:07;;;;;;;11.23;9.52;;;;;;;15.99;92.20;100966.00;5082187;28;20048;-81
2022/08/21 01:10:34;;;;;;;15.05;10.50;;;;;;;16.08;91.76;100966.69;5079935;28;20041;-80
2022/08/21 01:13:02;;;;;;;15.90;9.80;;;;;;;16.09;91.34;100965.69;5079067;28;20052;-81
2022/08/21 01:15:34;;;;;;;16.55;9.95;;;;;;;15.93;92.02;100958.81;5082513;28;20055;-82
2022/08/21 01:18:02;;;;;;;13.73;10.02;;;;;;;15.89;92.43;100957.53;5082876;28;20079;-80
2022/08/21 01:20:29;;;;;;;13.55;10.82;;;;;;;15.79;92.58;100956.97;5079196;28;20131;-80
2022/08/21 01:22:57;;;;;;;15.63;10.82;;;;;;;15.66;93.00;100959.41;5077412;28;20079;-80
2022/08/21 01:25:24;;;;;;;14.35;10.32;;;;;;;15.56;93.82;100980.78;5078936;28;20059;-81
2022/08/21 01:27:51;;;;;;;16.50;10.75;;;;;;;15.60;93.62;100974.16;5080241;28;20091;-80
2022/08/21 01:30:20;;;;;;;12.00;10.07;;;;;;;15.58;93.56;100971.72;5080263;28;20091;-81
2022/08/21 01:32:48;;;;;;;11.93;9.93;;;;;;;15.43;93.79;100977.94;5079290;28;20080;-80
2022/08/21 01:35:17;;;;;;;12.75;9.68;;;;;;;15.24;94.70;100979.25;5077942;28;20087;-83
2022/08/21 01:37:45;;;;;;;16.48;10.15;;;;;;;15.17;95.49;100987.03;5081641;28;20049;-81
2022/08/21 01:40:15;;;;;;;13.35;10.07;;;;;;;15.15;96.14;100981.13;5081146;28;20125;-80
2022/08/21 01:42:43;;;;;;;14.38;10.13;;;;;;;15.30;95.97;100983.81;5082531;28;20088;-79
2022/08/21 01:45:11;;;;;;;15.98;10.52;;;;;;;15.16;95.62;100987.22;5081799;28;20044;-82
2022/08/21 01:47:37;;;;;;;17.92;10.52;;;;;;;15.16;96.17;100987.22;5080469;28;20079;-80
2022/08/21 01:50:07;;;;;;;14.25;10.27;;;;;;;15.16;95.94;100982.75;5076515;28;20052;-80
2022/08/21 01:52:33;;;;;;;17.88;11.68;;;;;;;15.08;96.43;100968.84;5076751;28;20150;-81
2022/08/21 01:55:00;;;;;;;15.02;12.00;;;;;;;15.09;96.71;100973.94;5075754;28;20056;-80
2022/08/21 01:57:28;;;;;;;17.27;12.25;;;;;;;15.08;96.97;100974.13;5077495;28;20080;-80
2022/08/21 01:59:55;;;;;;;17.40;12.80;;;;;;;15.06;97.42;100973.47;5078669;28;20079;-79
2022/08/21 02:02:22;;;;;;;19.92;13.57;;;;;;;15.05;97.38;100969.19;5078234;28;20123;-79
2022/08/21 02:04:48;;;;;;;18.35;12.93;;;;;;;15.04;97.42;100984.19;5074389;28;20083;-79
2022/08/21 02:07:15;;;;;;;17.73;12.63;;;;;;;15.00;97.50;100977.63;5074514;28;20084;-80
2022/08/21 02:09:42;;;;;;;20.77;13.80;;;;;;;14.97;97.50;100974.53;5071074;28;20067;-80
2022/08/21 02:12:09;;;;;;;20.05;13.05;;;;;;;14.98;97.47;100976.16;5074200;28;20072;-77
2022/08/21 02:14:38;;;;;;;19.98;12.95;;;;;;;14.97;97.28;100974.53;5074946;28;20075;-79
2022/08/21 02:17:06;;;;;;;20.55;12.55;;;;;;;14.96;97.25;100975.53;5073703;28;20076;-80
2022/08/21 02:19:32;;;;;;;16.77;12.82;;;;;;;14.92;97.57;100970.59;5075703;28;20127;-81
2022/08/21 02:21:59;;;;;;;16.60;12.75;;;;;;;14.99;97.29;100962.81;5074478;28;20470;-78
2022/08/21 02:24:26;;;;;;;19.85;12.68;;;;;;;14.97;97.15;100962.19;5073609;28;20515;-79
2022/08/21 02:26:52;;;;;;;16.50;12.40;;;;;;;14.93;96.96;100966.16;5073039;28;20076;-79
2022/08/21 02:29:19;;;;;;;21.50;12.75;;;;;;;14.85;97.01;100968.84;5074157;28;20083;-80
2022/08/21 02:31:47;;;;;;;17.05;12.70;;;;;;;14.84;97.26;100970.66;5075479;28;20088;-78
2022/08/21 02:34:13;;;;;;;17.30;12.75;;;;;;;14.84;97.51;100967.19;5093766;28;20152;-79
2022/08/21 02:36:40;;;;;;;21.88;13.50;;;;;;;14.77;97.61;100953.91;5076691;28;20052;-78
2022/08/21 02:39:07;;;;;;;23.63;12.25;;;;;;;14.86;97.42;100970.47;5076441;28;20135;-80
2022/08/21 02:41:33;;;;;;;25.90;14.27;;;;;;;14.84;97.20;100961.94;5075855;28;20129;-79
2022/08/21 02:44:00;;;;;;;23.67;12.18;;;;;;;14.86;97.35;100959.94;5075705;28;20052;-78
2022/08/21 02:46:27;;;;;;;17.02;13.15;;;;;;;14.88;97.17;100964.03;5076491;28;20080;-80
2022/08/21 02:48:55;;;;;;;20.15;13.10;;;;;;;14.86;97.01;100955.50;5074232;28;20052;-80
2022/08/21 02:51:22;;;;;;;17.75;12.40;;;;;;;14.86;96.91;100966.03;5074447;28;20076;-80
2022/08/21 02:53:50;;;;;;;16.92;12.57;;;;;;;14.88;96.62;100957.94;5073594;28;20080;-79
2022/08/21 02:56:20;;;;;;;18.23;12.20;;;;;;;14.78;96.91;100968.72;5076158;28;20095;-81
2022/08/21 02:58:50;;;;;;;20.02;12.38;;;;;;;14.71;97.08;100962.50;5073836;28;20468;-79
2022/08/21 03:01:18;;;;;;;17.80;12.20;;;;;;;14.67;97.03;100965.66;5074602;28;20059;-80
2022/08/21 03:03:49;;;;;;;18.17;12.85;;;;;;;14.64;97.23;100964.22;5073224;28;20084;-78
2022/08/21 03:06:20;;;;;;;15.70;12.38;;;;;;;14.78;97.09;100965.25;5075036;28;20052;-79
2022/08/21 03:08:47;;;;;;;16.92;12.57;;;;;;;14.80;96.43;100972.00;5074913;28;20102;-80
2022/08/21 03:11:14;;;;;;;18.17;12.65;;;;;;;14.88;96.09;100956.13;5076874;28;20055;-80
2022/08/21 03:13:41;;;;;;;18.13;12.23;;;;;;;14.81;96.27;100960.47;5074458;28;20557;-81
2022/08/21 03:16:08;;;;;;;17.88;13.23;;;;;;;14.74;96.37;100962.16;5077597;28;20056;-80
2022/08/21 03:18:36;;;;;;;18.35;12.02;;;;;;;14.62;96.47;100953.03;5078873;28;20060;-78
2022/08/21 03:21:03;;;;;;;18.48;12.68;;;;;;;14.56;96.59;100957.19;5078321;28;20044;-80
2022/08/21 03:23:31;;;;;;;19.52;13.05;;;;;;;14.55;96.85;100958.19;5079903;28;20053;-78
2022/08/21 03:25:59;;;;;;;16.65;11.20;;;;;;;14.44;97.33;100958.56;5074934;28;20048;-80
2022/08/21 03:28:25;;;;;;;17.90;12.38;;;;;;;14.29;97.41;100953.19;5074387;28;20086;-78
2022/08/21 03:30:54;;;;;;;17.02;12.93;;;;;;;14.12;97.69;100946.38;5074153;28;20044;-77
2022/08/21 03:33:21;;;;;;;20.10;13.15;;;;;;;14.04;97.85;100956.94;5074479;28;20088;-80
2022/08/21 03:35:53;;;;;;;17.58;12.07;;;;;;;13.96;98.05;100956.94;5075350;28;20049;-79
2022/08/21 03:38:20;;;;;;;17.88;12.98;;;;;;;13.93;98.00;100952.03;5077520;28;20045;-79
2022/08/21 03:40:48;;;;;;;18.75;12.40;;;;;;;13.92;97.97;100955.66;5077909;28;20157;-82
2022/08/21 03:43:15;;;;;;;17.33;12.35;;;;;;;13.88;98.02;100954.34;5077403;28;20080;-80
2022/08/21 03:45:42;;;;;;;14.27;12.10;;;;;;;13.84;98.33;100953.84;5077575;28;20080;-80
2022/08/21 03:48:09;;;;;;;17.77;12.88;;;;;;;13.78;98.33;100943.19;5076301;28;20090;-80
2022/08/21 03:50:39;;;;;;;15.82;11.88;;;;;;;13.84;98.26;100950.41;5076215;28;20052;-79
2022/08/21 03:53:06;;;;;;;17.77;11.52;;;;;;;13.92;98.01;100956.47;5075044;28;20091;-80
2022/08/21 03:55:33;;;;;;;19.58;12.20;;;;;;;13.90;97.67;100952.38;5075662;28;20080;-79
2022/08/21 03:58:01;;;;;;;16.83;11.48;;;;;;;13.88;97.38;100951.72;5075161;28;20136;-77
2022/08/21 04:00:28;;;;;;;15.30;10.82;;;;;;;13.86;97.62;100959.78;5073829;28;20218;-78
2022/08/21 04:02:54;;;;;;;15.52;10.98;;;;;;;13.83;97.68;100954.03;5074194;28;20080;-80
2022/08/21 04:05:27;;;;;;;18.83;11.50;;;;;;;13.81;97.83;100956.81;5074151;28;20494;-78
2022/08/21 04:07:56;;;;;;;17.92;12.05;;;;;;;13.78;98.09;100953.72;5074200;28;20513;-79
2022/08/21 04:10:24;;;;;;;15.30;10.60;;;;;;;13.82;98.11;100966.34;5077340;28;20068;-81
2022/08/21 04:12:51;;;;;;;18.60;11.60;;;;;;;13.78;98.36;100964.22;5078008;28;20118;-79
2022/08/21 04:15:20;;;;;;;14.40;12.13;;;;;;;13.78;98.18;100966.88;5077211;28;20067;-79
2022/08/21 04:17:48;;;;;;;16.83;10.88;;;;;;;13.74;98.29;100970.81;5077926;28;20055;-80
2022/08/21 04:20:15;;;;;;;18.67;11.00;;;;;;;13.78;98.49;100990.53;5078200;28;20047;-80
2022/08/21 04:22:41;;;;;;;16.05;11.23;;;;;;;13.64;97.68;100994.69;5081252;28;20044;-80
2022/08/21 04:25:08;;;;;;;18.88;11.50;;;;;;;13.57;97.83;100988.47;5077811;28;20052;-79
2022/08/21 04:27:36;;;;;;;16.83;11.45;;;;;;;13.52;97.87;100990.75;5078182;28;20538;-80
2022/08/21 04:30:03;;;;;;;14.63;11.10;;;;;;;13.43;98.45;101000.47;5077223;28;20080;-78
2022/08/21 04:32:31;;;;;;;19.15;11.38;;;;;;;13.50;98.69;100993.56;5077443;28;20054;-79
2022/08/21 04:35:02;;;;;;;15.80;11.13;;;;;;;13.50;98.72;100998.00;5081503;28;20538;-78
2022/08/21 04:37:28;;;;;;;21.77;12.35;;;;;;;13.45;99.13;101006.38;5083245;28;20056;-81
2022/08/21 04:39:57;;;;;;;24.45;12.13;;;;;;;13.39;99.27;100996.50;5082300;28;20041;-81
2022/08/21 04:42:24;;;;;;;20.40;12.45;;;;;;;13.46;99.77;100992.25;5083994;28;20048;-81
2022/08/21 04:44:51;;;;;;;18.13;12.80;;;;;;;13.53;99.18;100998.47;5083014;28;20084;-82
2022/08/21 04:47:17;;;;;;;18.42;11.95;;;;;;;13.60;98.84;100998.66;5081672;28;20426;-81
2022/08/21 04:49:45;;;;;;;17.33;11.82;;;;;;;13.64;98.65;100997.31;5081757;28;20512;-81
2022/08/21 04:52:15;;;;;;;18.08;11.45;;;;;;;13.76;98.39;100997.78;5081235;28;20072;-80
2022/08/21 04:54:45;;;;;;;16.58;12.10;;;;;;;13.78;97.88;101007.13;5083340;28;20087;-80
2022/08/21 04:57:14;;;;;;;19.60;12.02;;;;;;;13.82;98.00;100997.09;5080561;28;20056;-79
2022/08/21 04:59:45;;;;;;;16.98;12.23;;;;;;;13.88;97.83;100991.16;5080074;28;20044;-80
2022/08/21 05:02:13;;;;;;;16.95;12.45;;;;;;;13.95;97.56;100989.50;5080565;28;20150;-81
2022/08/21 05:04:44;;;;;;;15.70;12.18;;;;;;;14.11;96.94;100996.53;5081213;28;20052;-81
2022/08/21 05:07:17;;;;;;;17.30;11.57;;;;;;;14.11;96.54;101000.00;5081561;28;20080;-79
2022/08/21 05:09:44;;;;;;;;;;;;;;;14.12;96.43;100990.28;5081543;28;20059;-81
2022/08/21 05:12:11;;;;;;;18.50;11.52;;;;;;;14.11;95.94;100992.09;5079928;28;19920;-80
2022/08/21 05:14:38;;;;;;;16.92;10.88;;;;;;;14.31;95.78;101002.19;5069053;28;20262;-81
2022/08/21 05:17:05;;;;;;;18.13;11.38;;;;;;;14.19;95.64;101004.38;5076635;28;20095;-83
2022/08/21 05:19:32;;;;;;;18.05;11.48;;;;;;;14.15;95.99;100996.03;5073401;28;20494;-80
2022/08/21 05:21:58;;;;;;;16.55;11.80;;;;;;;14.24;95.83;100997.63;5080344;28;20068;-81
2022/08/21 05:24:26;;;;;;;16.38;11.40;;;;;;;14.26;95.61;100998.28;5079736;28;20087;-79
2022/08/21 05:26:53;;;;;;;16.38;11.25;;;;;;;14.19;95.68;100989.41;5076577;28;20136;-78
2022/08/21 05:29:20;;;;;;;16.23;10.85;;;;;;;14.40;95.34;101011.72;5079210;28;20076;-80
2022/08/21 05:31:48;;;;;;;15.45;10.95;;;;;;;14.53;94.53;101007.56;5080902;28;20129;-83
2022/08/21 05:34:16;;;;;;;17.10;11.07;;;;;;;14.58;94.07;101001.78;5076133;28;20059;-79
2022/08/21 05:36:42;;;;;;;15.02;11.00;;;;;;;14.71;94.19;101007.28;5078447;28;20112;-79
2022/08/21 05:39:09;;;;;;;19.13;12.20;;;;;;;14.69;93.48;101013.72;5072902;28;20052;-79
2022/08/21 05:41:37;;;;;;;15.18;10.45;;;;;;;15.15;92.66;101015.38;5072666;28;20059;-81
2022/08/21 05:44:04;;;;;;;17.23;9.95;;;;;;;16.08;88.31;101012.38;5073504;28;20396;-79
2022/08/21 05:46:31;;;;;;;14.30;9.00;;;;;;;16.77;85.09;100999.63;5071798;28;20139;-79
2022/08/21 05:48:57;;;;;;;15.75;9.02;;;;;;;17.86;80.86;101014.22;5075804;28;20534;-79
2022/08/21 05:51:24;;;;;;;16.73;9.25;;;;;;;18.81;77.16;101045.25;5075116;28;20079;-79
2022/08/21 05:53:51;;;;;;;15.35;8.80;;;;;;;19.40;74.11;101038.38;5074174;28;20052;-80
2022/08/21 05:56:18;;;;;;;14.38;8.02;;;;;;;20.00;71.66;101020.56;5075191;28;20139;-80
2022/08/21 05:58:46;;;;;;;12.95;8.95;;;;;;;20.23;70.16;101007.63;5073782;28;20173;-79
2022/08/21 06:01:14;;;;;;;11.75;7.65;;;;;;;20.20;70.88;101027.47;5072481;28;20121;-79
2022/08/21 06:03:42;;;;;;;12.07;7.65;;;;;;;20.73;68.97;101013.97;5074994;28;20044;-79
2022/08/21 06:06:10;;;;;;;12.40;6.97;;;;;;;21.32;66.72;101007.41;5075589;28;20048;-79
2022/08/21 06:08:37;;;;;;;12.45;7.63;;;;;;;20.76;68.13;101013.53;5075493;28;20104;-79
2022/08/21 06:11:06;;;;;;;14.48;6.90;;;;;;;21.25;66.79;101014.66;5075524;28;20049;-80
2022/08/21 06:13:33;;;;;;;13.80;7.28;;;;;;;21.24;66.57;101002.41;5078433;28;20109;-81
2022/08/21 06:16:07;;;;;;;16.52;7.07;;;;;;;22.15;65.03;100999.06;5074298;28;20111;-79
2022/08/21 06:18:34;;;;;;;14.27;7.15;;;;;;;22.70;63.54;101013.09;5075590;28;20132;-80
2022/08/21 06:21:01;;;;;;;13.88;7.03;;;;;;;23.01;62.29;100996.06;5073805;28;20048;-79
2022/08/21 06:23:28;;;;;;;14.68;7.70;;;;;;;23.26;61.48;101006.53;5076042;28;20687;-79
2022/08/21 06:25:54;;;;;;;11.88;6.97;;;;;;;23.38;60.81;101007.34;5074058;28;20040;-79
2022/08/21 06:28:21;;;;;;;11.10;6.93;;;;;;;23.53;60.39;101009.59;5090036;22;20052;-76
2022/08/21 06:30:48;;;;;;;9.48;6.57;;;;;;;23.36;60.40;101006.75;5089558;28;20043;-79
2022/08/21 06:33:16;;;;;;;12.80;6.97;;;;;;;23.42;61.24;101013.84;5099593;28;20068;-78
2022/08/21 06:35:43;;;;;;;14.40;6.35;;;;;;;23.60;60.40;101012.97;5098501;28;20242;-79
2022/08/21 06:38:09;;;;;;;11.57;7.00;;;;;;;22.66;62.15;101005.78;5099803;28;20665;-79
2022/08/21 06:40:37;;;;;;;11.02;6.25;;;;;;;23.82;59.81;101010.50;5067544;28;20047;-78
2022/08/21 06:43:08;;;;;;;9.07;6.55;;;;;;;24.28;58.36;100998.13;5047990;28;20052;-78
2022/08/21 06:45:36;;;;;;;10.27;6.55;;;;;;;24.84;56.56;101007.19;5048378;28;20105;-78
2022/08/21 06:48:03;;;;;;;9.60;5.97;;;;;;;25.34;56.20;101012.59;5064471;28;20080;-78
2022/08/21 06:50:32;;;;;;;11.45;6.53;;;;;;;25.23;55.93;101006.25;5063497;28;20049;-79
2022/08/21 06:53:04;;;;;;;15.32;6.57;;;;;;;25.46;55.42;100998.06;5063449;28;20079;-79
2022/08/21 06:55:30;;;;;;;10.65;6.55;;;;;;;25.38;55.52;101006.50;5063616;28;20049;-79
2022/08/21 06:57:57;;;;;;;10.07;6.32;;;;;;;25.28;55.63;101010.88;5063911;28;20052;-78
2022/08/21 07:00:23;;;;;;;12.45;5.93;;;;;;;25.75;54.83;101014.84;5063591;28;20084;-79
2022/08/21 07:02:50;;;;;;;11.82;6.07;;;;;;;25.54;54.76;101002.16;5065411;28;20049;-78
2022/08/21 07:05:17;;;;;;;10.77;5.20;;;;;;;26.22;53.28;100998.28;5060668;28;20080;-78
2022/08/21 07:07:45;;;;;;;9.48;4.63;;;;;;;25.39;54.52;101007.31;5057226;28;20106;-78
2022/08/21 07:10:11;;;;;;;8.02;4.22;;;;;;;26.17;53.33;101000.91;5060298;28;20502;-79
2022/08/21 07:12:38;;;;;;;9.45;4.40;;;;;;;26.79;51.71;101008.56;5060800;28;20080;-78
2022/08/21 07:15:06;;;;;;;8.27;3.90;;;;;;;26.61;49.97;101007.03;5061710;28;20454;-78
2022/08/21 07:17:33;;;;;;;9.38;3.67;;;;;;;26.48;50.11;101007.44;5047574;28;20046;-78
2022/08/21 07:20:00;;;;;;;12.45;4.60;;;;;;;26.84;49.38;101010.50;5042793;28;20081;-78
2022/08/21 07:22:27;;;;;;;9.70;4.22;;;;;;;26.50;49.53;101005.31;5042139;28;20073;-78
2022/08/21 07:24:56;;;;;;;12.82;4.40;;;;;;;26.46;49.83;101012.28;5051897;28;20041;-77
2022/08/21 07:27:23;;;;;;;11.32;4.00;;;;;;;26.62;49.32;101003.28;5061892;28;20156;-78
2022/08/21 07:29:49;;;;;;;10.73;3.80;;;;;;;26.42;50.09;101001.22;5061798;28;20419;-78
2022/08/21 07:32:16;;;;;;;8.07;3.70;;;;;;;26.81;49.07;101005.63;5060658;28;20109;-79
2022/08/21 07:34:43;;;;;;;9.70;3.70;;;;;;;27.18;48.48;101006.50;5059948;28;20080;-78
2022/08/21 07:37:09;;;;;;;9.48;3.78;;;;;;;27.36;48.71;101003.44;5048328;28;20128;-78
2022/08/21 07:39:36;;;;;;;8.50;3.30;;;;;;;27.12;48.97;101001.34;5046793;28;20041;-79
2022/08/21 07:42:04;;;;;;;8.43;3.35;;;;;;;27.25;48.38;101001.72;5064767;28;20076;-79
2022/08/21 07:44:31;;;;;;;8.55;3.63;;;;;;;27.48;47.66;101005.09;5063865;28;20056;-80
2022/08/21 07:46:58;;;;;;;11.02;4.20;;;;;;;27.23;49.06;101003.88;5055679;28;20045;-78
2022/08/21 07:49:24;;;;;;;6.50;3.50;;;;;;;27.33;47.85;101011.19;5054907;28;20059;-78
2022/08/21 07:51:51;;;;;;;10.27;4.32;;;;;;;27.01;48.32;100995.06;5052183;28;20069;-78
2022/08/21 07:54:18;;;;;;;10.75;4.50;;;;;;;27.39;48.09;101005.59;5050330;28;20069;-79
2022/08/21 07:56:45;;;;;;;9.05;4.30;;;;;;;27.14;48.56;100994.66;5053917;28;20071;-80
2022/08/21 07:59:13;;;;;;;9.27;3.88;;;;;;;26.35;50.17;101007.84;5055566;28;20053;-82
2022/08/21 08:01:40;;;;;;;12.25;4.18;;;;;;;25.69;51.43;100996.25;5054693;28;20045;-79
2022/08/21 08:04:07;;;;;;;11.18;4.63;;;;;;;25.97;51.32;101001.47;5056452;28;20061;-79
2022/08/21 08:06:34;;;;;;;13.65;4.60;;;;;;;26.05;52.21;100990.28;5061286;28;20060;-80
2022/08/21 08:09:02;;;;;;;11.95;4.65;;;;;;;26.59;50.33;100992.25;5060033;28;20128;-78
2022/08/21 08:11:28;;;;;;;8.63;4.03;;;;;;;26.61;50.93;100982.06;5060619;28;20045;-81
2022/08/21 08:13:57;;;;;;;8.45;4.30;;;;;;;26.87;50.10;100975.88;5063008;28;20049;-79
2022/08/21 08:16:25;;;;;;;11.95;3.83;;;;;;;26.79;49.21;100973.66;5053884;28;20049;-78
2022/08/21 08:18:52;;;;;;;8.20;4.43;;;;;;;26.20;50.53;100981.63;5064177;28;20638;-78
2022/08/21 08:21:20;;;;;;;6.85;3.88;;;;;;;26.88;49.61;100990.13;5047435;28;20472;-81
2022/08/21 08:23:47;;;;;;;8.40;3.90;;;;;;;26.38;49.37;100988.56;5054149;28;20080;-80
2022/08/21 08:26:15;;;;;;;6.63;3.75;;;;;;;26.88;49.27;100984.75;5062955;28;20080;-78
2022/08/21 08:28:42;;;;;;;9.55;3.70;;;;;;;26.66;48.28;100980.25;5059269;28;20102;-80
2022/08/21 08:31:09;;;;;;;7.60;3.50;;;;;;;26.95;48.66;100985.31;5057284;28;20427;-79
2022/08/21 08:33:37;;;;;;;6.82;3.70;;;;;;;27.13;49.12;100981.47;5057865;28;20067;-79
2022/08/21 08:36:04;;;;;;;8.25;3.30;;;;;;;28.08;46.82;100983.13;5058809;28;20044;-80
2022/08/21 08:38:31;;;;;;;7.95;3.22;;;;;;;27.68;46.91;100975.69;5059809;28;20068;-80
2022/08/21 08:41:03;;;;;;;6.63;3.35;;;;;;;28.04;46.72;100977.44;5059102;28;20049;-80
2022/08/21 08:43:32;;;;;;;9.20;4.00;;;;;;;28.77;45.53;100976.56;5059066;28;20053;-80
2022/08/21 08:46:03;;;;;;;7.60;3.42;;;;;;;28.25;45.63;100980.25;5061677;28;20507;-80
2022/08/21 08:48:44;;;;;;;10.05;3.58;;;;;;;27.50;46.57;100978.75;5068826;28;20056;-79
2022/08/21 08:51:19;;;;;;;8.02;3.30;;;;;;;27.44;46.93;100984.09;5080560;28;20056;-78
2022/08/21 08:53:51;;;;;;;14.20;4.15;;;;;;;26.52;48.71;100965.63;5062490;28;20053;-80
2022/08/21 08:56:26;;;;;;;8.70;3.40;;;;;;;26.32;50.01;100970.78;5051308;28;20412;-78
2022/08/21 08:58:54;;;;;;;9.18;3.38;;;;;;;26.39;49.45;100963.34;5045786;28;20081;-80
2022/08/21 09:01:21;;;;;;;7.15;3.90;;;;;;;27.01;48.22;100960.16;5050663;28;20049;-79
2022/08/21 09:03:51;;;;;;;9.65;3.50;;;;;;;27.35;47.89;100969.56;5061545;28;20045;-79
2022/08/21 09:06:35;;;;;;;9.55;2.97;;;;;;;27.21;47.42;100972.94;5061513;28;20053;-78
2022/08/21 09:09:15;;;;;;;10.07;4.00;;;;;;;27.09;47.62;100962.38;5059083;28;20403;-77
2022/08/21 09:11:49;;;;;;;8.00;3.47;;;;;;;27.37;47.58;100962.06;5060305;28;20045;-80
2022/08/21 09:14:26;;;;;;;6.65;3.33;;;;;;;26.77;48.34;100963.19;5060449;28;20053;-78
2022/08/21 09:17:03;;;;;;;8.55;4.00;;;;;;;27.14;47.07;100962.41;5059561;28;20446;-77
2022/08/21 09:19:50;;;;;;;9.15;3.45;;;;;;;27.30;47.31;100955.28;5058913;28;20136;-80
2022/08/21 09:22:30;;;;;;;9.85;3.60;;;;;;;27.00;47.87;100962.03;5065079;28;20060;-79
2022/08/21 09:25:07;;;;;;;6.97;3.45;;;;;;;26.97;48.28;100953.69;5072015;28;20045;-80
2022/08/21 09:27:35;;;;;;;8.60;3.63;;;;;;;26.73;48.36;100937.09;5058530;28;20111;-79
2022/08/21 09:30:02;;;;;;;8.10;3.90;;;;;;;26.27;49.00;100946.56;5057649;28;20095;-78
2022/08/21 09:32:32;;;;;;;9.70;3.83;;;;;;;26.24;49.48;100950.56;5057304;28;20044;-79
2022/08/21 09:35:07;;;;;;;9.57;3.40;;;;;;;26.66;48.99;100949.91;5056572;28;20144;-80
2022/08/21 09:37:36;;;;;;;8.93;4.07;;;;;;;27.30;48.85;100945.34;5059130;28;20157;-78
2022/08/21 09:40:16;;;;;;;8.43;3.30;;;;;;;27.03;47.33;100941.91;5063308;28;20060;-79
2022/08/21 09:42:42;;;;;;;7.50;3.83;;;;;;;26.36;48.79;100939.72;5064809;28;20083;-79
2022/08/21 09:45:14;;;;;;;11.23;4.00;;;;;;;25.62;50.56;100944.66;5055746;28;20143;-79
2022/08/21 09:47:41;;;;;;;9.57;3.30;;;;;;;25.72;50.73;100939.47;5048588;28;20045;-79
2022/08/21 09:50:16;;;;;;;11.43;4.35;;;;;;;25.81;50.49;100942.53;5052475;28;20068;-79
2022/08/21 09:52:50;;;;;;;9.27;3.67;;;;;;;25.54;50.26;100937.84;5053809;28;20146;-78
2022/08/21 09:58:07;;;;;;;10.15;3.95;;;;;;;25.38;51.12;100941.41;5039814;28;20117;-79
2022/08/21 10:00:36;;;;;;;8.73;3.35;;;;;;;25.21;52.12;100949.44;5039799;28;20045;-78
2022/08/21 10:03:13;;;;;;;8.32;3.65;;;;;;;25.46;50.95;100931.09;5061651;28;20479;-78
2022/08/21 10:05:50;;;;;;;8.45;3.85;;;;;;;25.55;50.55;100928.75;5059749;28;20080;-79
2022/08/21 10:08:19;;;;;;;11.65;4.15;;;;;;;25.56;50.78;100933.06;5059035;28;20407;-80
2022/08/21 10:10:46;;;;;;;4.70;3.20;;;;;;;26.04;50.51;100926.19;5055852;28;20088;-79
2022/08/21 10:13:17;;;;;;;10.82;3.75;;;;;;;26.46;49.40;100923.72;5054915;28;20084;-78
2022/08/21 10:15:51;;;;;;;6.75;2.90;;;;;;;25.89;49.23;100918.78;5049359;28;20124;-77
2022/08/21 10:18:26;;;;;;;9.77;3.22;;;;;;;25.76;50.25;100919.16;5053369;28;20186;-79
2022/08/21 10:21:02;;;;;;;9.23;3.50;;;;;;;26.16;49.51;100923.38;5055043;28;20049;-77
2022/08/21 10:23:41;;;;;;;8.20;3.30;;;;;;;26.06;49.18;100914.13;5057844;28;20076;-79
2022/08/21 10:26:30;;;;;;;5.97;3.10;;;;;;;26.30;48.93;100916.53;5055037;28;20132;-78
2022/08/21 10:29:03;;;;;;;9.80;3.58;;;;;;;26.21;49.76;100910.00;5061287;28;20057;-80
2022/08/21 10:31:40;;;;;;;10.20;3.30;;;;;;;26.61;48.90;100907.72;5060627;28;20053;-79
2022/08/21 10:34:20;;;;;;;8.23;3.40;;;;;;;26.43;48.26;100908.13;5060017;28;20122;-79
2022/08/21 10:37:01;;;;;;;9.45;3.22;;;;;;;26.28;49.15;100905.25;5059547;28;20076;-79
2022/08/21 10:39:34;;;;;;;8.35;3.63;;;;;;;25.84;50.03;100905.31;5059653;28;20041;-79
2022/08/21 10:42:18;;;;;;;7.53;3.33;;;;;;;26.02;49.77;100902.28;5057005;28;20507;-80
2022/08/21 10:44:52;;;;;;;8.63;3.10;;;;;;;25.94;49.43;100916.16;5056138;28;20529;-78
2022/08/21 10:47:29;;;;;;;7.03;3.33;;;;;;;25.60;49.93;100904.72;5044647;28;20050;-78
2022/08/21 10:50:04;;;;;;;9.23;3.22;;;;;;;25.43;51.28;100898.63;5043409;28;20084;-79
2022/08/21 10:52:45;;;;;;;7.60;3.40;;;;;;;25.57;50.50;100899.03;5046528;28;20124;-80
2022/08/21 10:55:17;;;;;;;10.30;3.35;;;;;;;25.68;50.53;100892.78;5049577;28;20081;-78
2022/08/21 10:57:51;;;;;;;10.23;3.53;;;;;;;26.13;50.46;100892.50;5058076;28;20053;-78
2022/08/21 11:00:22;;;;;;;7.50;3.65;;;;;;;26.15;48.42;100889.56;5059459;28;20114;-79
2022/08/21 11:02:57;;;;;;;8.35;3.28;;;;;;;25.95;48.84;100892.84;5052901;28;20069;-80
2022/08/21 11:05:28;;;;;;;7.18;3.20;;;;;;;26.68;48.55;100886.88;5067766;28;20052;-79
2022/08/21 11:08:04;;;;;;;8.32;3.75;;;;;;;26.31;48.77;100886.00;5065659;28;20068;-79
2022/08/21 11:10:37;;;;;;;8.82;3.38;;;;;;;26.41;47.67;100896.84;5059317;28;20060;-79
2022/08/21 11:13:09;;;;;;;6.45;3.08;;;;;;;26.69;46.29;100887.66;5058035;28;20055;-78
2022/08/21 11:15:57;;;;;;;7.03;3.25;;;;;;;26.66;47.38;100891.69;5050309;28;20123;-79
2022/08/21 11:18:29;;;;;;;6.47;3.20;;;;;;;26.33;47.37;100882.00;5061164;28;20049;-78
2022/08/21 11:21:03;;;;;;;7.25;3.00;;;;;;;26.09;48.81;100883.31;5047095;28;20076;-78
2022/08/21 11:23:39;;;;;;;6.00;3.17;;;;;;;26.94;47.15;100885.16;5053265;28;20071;-80
2022/08/21 11:26:10;;;;;;;8.38;3.75;;;;;;;27.13;46.34;100880.22;5047867;28;20049;-78
2022/08/21 11:28:43;;;;;;;5.70;3.00;;;;;;;27.05;46.83;100888.75;5049360;28;20085;-79